sensor_id;sensor_type;location;lat;lon;timestamp;P1;durP1;ratioP1;P2;durP2;ratioP2
8652;SDS011;4364;52.426;9.424;2022-08-21T00:02:01;5.50;;;3.70;;
8652;SDS011;4364;52.426;9.424;2022-08-21T00:04:28;6.87;;;3.60;;
8652;SDS011;4364;52.426;9.424;2022-08-21T00:06:56;6.20;;;3.20;;
8652;SDS011;4364;52.426;9.424;2022-08-21T00:09:23;6.90;;;3.60;;
8652;SDS011;4364;52.426;9.424;2022-08-21T00:11:51;5.07;;;2.83;;
8652;SDS011;4364;52.426;9.424;2022-08-21T00:17:11;7.93;;;3.20;;
8652;SDS011;4364;52.426;9.424;2022-08-21T00:19:38;4.67;;;2.70;;
8652;SDS011;4364;52.426;9.424;2022-08-21T00:22:05;3.47;;;2.40;;
8652;SDS011;4364;52.426;9.424;2022-08-21T00:24:31;5.43;;;2.47;;
8652;SDS011;4364;52.426;9.424;2022-08-21T00:26:58;5.73;;;2.67;;
8652;SDS011;4364;52.426;9.424;2022-08-21T00:29:25;3.50;;;2.40;;
8652;SDS011;4364;52.426;9.424;2022-08-21T00:31:52;5.10;;;2.87;;
8652;SDS011;4364;52.426;9.424;2022-08-21T00:34:19;7.13;;;3.30;;
8652;SDS011;4364;52.426;9.424;2022-08-21T00:36:46;6.17;;;3.53;;
8652;SDS011;4364;52.426;9.424;2022-08-21T00:39:13;6.07;;;2.87;;
8652;SDS011;4364;52.426;9.424;2022-08-21T00:41:40;7.97;;;3.17;;
8652;SDS011;4364;52.426;9.424;2022-08-21T00:44:09;6.40;;;3.40;;
8652;SDS011;4364;52.426;9.424;2022-08-21T00:46:38;7.50;;;3.07;;
8652;SDS011;4364;52.426;9.424;2022-08-21T00:49:07;5.77;;;2.70;;
8652;SDS011;4364;52.426;9.424;2022-08-21T00:51:38;6.97;;;3.63;;
8652;SDS011;4364;52.426;9.424;2022-08-21T00:54:08;7.57;;;3.27;;
8652;SDS011;4364;52.426;9.424;2022-08-21T00:56:44;6.60;;;3.53;;
8652;SDS011;4364;52.426;9.424;2022-08-21T00:59:13;5.27;;;3.30;;
8652;SDS011;4364;52.426;9.424;2022-08-21T01:01:44;5.67;;;3.00;;
8652;SDS011;4364;52.426;9.424;2022-08-21T01:04:11;7.27;;;3.27;;
8652;SDS011;4364;52.426;9.424;2022-08-21T01:06:39;4.97;;;2.80;;
8652;SDS011;4364;52.426;9.424;2022-08-21T01:09:05;5.17;;;3.33;;
8652;SDS011;4364;52.426;9.424;2022-08-21T01:11:32;6.90;;;3.50;;
8652;SDS011;4364;52.426;9.424;2022-08-21T01:13:58;6.00;;;2.90;;
8652;SDS011;4364;52.426;9.424;2022-08-21T01:16:25;4.30;;;2.93;;
8652;SDS011;4364;52.426;9.424;2022-08-21T01:18:52;5.30;;;2.93;;
8652;SDS011;4364;52.426;9.424;2022-08-21T01:21:20;6.13;;;2.97;;
8652;SDS011;4364;52.426;9.424;2022-08-21T01:23:55;4.40;;;3.17;;
8652;SDS011;4364;52.426;9.424;2022-08-21T01:26:24;5.37;;;2.70;;
8652;SDS011;4364;52.426;9.424;2022-08-21T01:29:13;4.83;;;3.00;;
8652;SDS011;4364;52.426;9.424;2022-08-21T01:31:53;5.33;;;3.33;;
8652;SDS011;4364;52.426;9.424;2022-08-21T01:34:22;5.23;;;3.10;;
8652;SDS011;4364;52.426;9.424;2022-08-21T01:36:48;8.50;;;3.07;;
8652;SDS011;4364;52.426;9.424;2022-08-21T01:39:15;5.57;;;3.27;;
8652;SDS011;4364;52.426;9.424;2022-08-21T01:41:43;3.70;;;2.53;;
8652;SDS011;4364;52.426;9.424;2022-08-21T01:44:09;4.93;;;3.13;;
8652;SDS011;4364;52.426;9.424;2022-08-21T01:46:36;4.50;;;3.07;;
8652;SDS011;4364;52.426;9.424;2022-08-21T01:49:03;4.60;;;2.87;;
8652;SDS011;4364;52.426;9.424;2022-08-21T01:51:30;7.80;;;2.83;;
8652;SDS011;4364;52.426;9.424;2022-08-21T01:53:57;7.20;;;3.30;;
8652;SDS011;4364;52.426;9.424;2022-08-21T01:56:24;5.57;;;3.30;;
8652;SDS011;4364;52.426;9.424;2022-08-21T01:58:54;6.20;;;2.87;;
8652;SDS011;4364;52.426;9.424;2022-08-21T02:01:21;5.27;;;2.60;;
8652;SDS011;4364;52.426;9.424;2022-08-21T02:03:48;4.23;;;2.43;;
8652;SDS011;4364;52.426;9.424;2022-08-21T02:06:16;4.87;;;2.80;;
8652;SDS011;4364;52.426;9.424;2022-08-21T02:08:44;4.03;;;2.93;;
8652;SDS011;4364;52.426;9.424;2022-08-21T02:11:12;5.43;;;3.20;;
8652;SDS011;4364;52.426;9.424;2022-08-21T02:13:40;5.40;;;2.90;;
8652;SDS011;4364;52.426;9.424;2022-08-21T02:16:07;4.27;;;2.80;;
8652;SDS011;4364;52.426;9.424;2022-08-21T02:18:34;6.37;;;2.90;;
8652;SDS011;4364;52.426;9.424;2022-08-21T02:21:01;6.87;;;3.10;;
8652;SDS011;4364;52.426;9.424;2022-08-21T02:23:29;3.90;;;2.63;;
8652;SDS011;4364;52.426;9.424;2022-08-21T02:25:57;4.73;;;3.00;;
8652;SDS011;4364;52.426;9.424;2022-08-21T02:28:25;3.73;;;2.37;;
8652;SDS011;4364;52.426;9.424;2022-08-21T02:30:53;7.50;;;3.53;;
8652;SDS011;4364;52.426;9.424;2022-08-21T02:33:29;4.37;;;2.77;;
8652;SDS011;4364;52.426;9.424;2022-08-21T02:38:47;4.23;;;2.90;;
8652;SDS011;4364;52.426;9.424;2022-08-21T02:41:16;7.43;;;3.40;;
8652;SDS011;4364;52.426;9.424;2022-08-21T02:43:45;4.97;;;3.27;;
8652;SDS011;4364;52.426;9.424;2022-08-21T02:46:12;7.67;;;3.40;;
8652;SDS011;4364;52.426;9.424;2022-08-21T02:48:42;6.37;;;3.50;;
8652;SDS011;4364;52.426;9.424;2022-08-21T02:51:10;6.57;;;3.57;;
8652;SDS011;4364;52.426;9.424;2022-08-21T02:53:39;4.27;;;3.63;;
8652;SDS011;4364;52.426;9.424;2022-08-21T02:56:08;7.67;;;4.23;;
8652;SDS011;4364;52.426;9.424;2022-08-21T02:58:38;6.20;;;3.73;;
8652;SDS011;4364;52.426;9.424;2022-08-21T03:01:08;6.43;;;3.73;;
8652;SDS011;4364;52.426;9.424;2022-08-21T03:03:37;7.93;;;4.23;;
8652;SDS011;4364;52.426;9.424;2022-08-21T03:06:05;6.30;;;4.10;;
8652;SDS011;4364;52.426;9.424;2022-08-21T03:08:32;6.30;;;3.80;;
8652;SDS011;4364;52.426;9.424;2022-08-21T03:10:58;6.20;;;3.87;;
8652;SDS011;4364;52.426;9.424;2022-08-21T03:13:28;5.00;;;3.57;;
8652;SDS011;4364;52.426;9.424;2022-08-21T03:15:55;6.53;;;3.43;;
8652;SDS011;4364;52.426;9.424;2022-08-21T03:18:23;4.83;;;3.40;;
8652;SDS011;4364;52.426;9.424;2022-08-21T03:20:51;7.80;;;4.03;;
8652;SDS011;4364;52.426;9.424;2022-08-21T03:23:17;5.10;;;3.73;;
8652;SDS011;4364;52.426;9.424;2022-08-21T03:25:45;6.33;;;3.50;;
8652;SDS011;4364;52.426;9.424;2022-08-21T03:28:15;7.07;;;3.80;;
8652;SDS011;4364;52.426;9.424;2022-08-21T03:30:43;6.03;;;3.73;;
8652;SDS011;4364;52.426;9.424;2022-08-21T03:33:12;6.70;;;3.43;;
8652;SDS011;4364;52.426;9.424;2022-08-21T03:35:44;4.63;;;3.60;;
8652;SDS011;4364;52.426;9.424;2022-08-21T03:38:13;6.53;;;3.70;;
8652;SDS011;4364;52.426;9.424;2022-08-21T03:41:05;5.30;;;3.70;;
8652;SDS011;4364;52.426;9.424;2022-08-21T03:43:34;6.20;;;3.63;;
8652;SDS011;4364;52.426;9.424;2022-08-21T03:46:02;6.27;;;3.40;;
8652;SDS011;4364;52.426;9.424;2022-08-21T03:48:29;6.93;;;3.63;;
8652;SDS011;4364;52.426;9.424;2022-08-21T03:50:57;7.83;;;3.70;;
8652;SDS011;4364;52.426;9.424;2022-08-21T03:53:23;5.97;;;3.63;;
8652;SDS011;4364;52.426;9.424;2022-08-21T03:55:52;7.50;;;3.47;;
8652;SDS011;4364;52.426;9.424;2022-08-21T03:58:21;5.70;;;3.40;;
8652;SDS011;4364;52.426;9.424;2022-08-21T04:00:51;5.30;;;3.30;;
8652;SDS011;4364;52.426;9.424;2022-08-21T04:03:22;7.47;;;3.30;;
8652;SDS011;4364;52.426;9.424;2022-08-21T04:05:50;5.30;;;2.90;;
8652;SDS011;4364;52.426;9.424;2022-08-21T04:08:18;6.77;;;2.90;;
8652;SDS011;4364;52.426;9.424;2022-08-21T04:10:45;4.53;;;3.30;;
8652;SDS011;4364;52.426;9.424;2022-08-21T04:13:15;7.47;;;3.13;;
8652;SDS011;4364;52.426;9.424;2022-08-21T04:15:43;5.97;;;3.47;;
8652;SDS011;4364;52.426;9.424;2022-08-21T04:18:10;7.60;;;3.03;;
8652;SDS011;4364;52.426;9.424;2022-08-21T04:20:37;4.67;;;3.60;;
8652;SDS011;4364;52.426;9.424;2022-08-21T04:23:05;6.83;;;3.23;;
8652;SDS011;4364;52.426;9.424;2022-08-21T04:25:32;6.03;;;3.07;;
8652;SDS011;4364;52.426;9.424;2022-08-21T04:27:58;4.77;;;3.20;;
8652;SDS011;4364;52.426;9.424;2022-08-21T04:30:25;5.00;;;2.83;;
8652;SDS011;4364;52.426;9.424;2022-08-21T04:32:57;7.63;;;3.20;;
8652;SDS011;4364;52.426;9.424;2022-08-21T04:35:27;4.13;;;2.77;;
8652;SDS011;4364;52.426;9.424;2022-08-21T04:37:57;5.33;;;3.00;;
8652;SDS011;4364;52.426;9.424;2022-08-21T04:40:25;4.43;;;2.90;;
8652;SDS011;4364;52.426;9.424;2022-08-21T04:43:15;6.37;;;3.00;;
8652;SDS011;4364;52.426;9.424;2022-08-21T04:45:43;5.17;;;2.83;;
8652;SDS011;4364;52.426;9.424;2022-08-21T04:48:12;3.50;;;2.60;;
8652;SDS011;4364;52.426;9.424;2022-08-21T04:50:49;6.10;;;2.80;;
8652;SDS011;4364;52.426;9.424;2022-08-21T04:53:30;6.50;;;2.90;;
8652;SDS011;4364;52.426;9.424;2022-08-21T04:56:02;5.40;;;2.73;;
8652;SDS011;4364;52.426;9.424;2022-08-21T04:58:34;7.77;;;3.13;;
8652;SDS011;4364;52.426;9.424;2022-08-21T05:01:03;5.57;;;2.80;;
8652;SDS011;4364;52.426;9.424;2022-08-21T05:03:32;6.50;;;3.40;;
8652;SDS011;4364;52.426;9.424;2022-08-21T05:06:01;5.10;;;2.53;;
8652;SDS011;4364;52.426;9.424;2022-08-21T05:08:32;3.77;;;2.40;;
8652;SDS011;4364;52.426;9.424;2022-08-21T05:11:02;5.67;;;3.00;;
8652;SDS011;4364;52.426;9.424;2022-08-21T05:13:29;5.23;;;2.70;;
8652;SDS011;4364;52.426;9.424;2022-08-21T05:15:59;5.23;;;3.30;;
8652;SDS011;4364;52.426;9.424;2022-08-21T05:18:26;5.97;;;3.07;;
8652;SDS011;4364;52.426;9.424;2022-08-21T05:20:53;5.37;;;2.83;;
8652;SDS011;4364;52.426;9.424;2022-08-21T05:23:22;8.53;;;3.13;;
8652;SDS011;4364;52.426;9.424;2022-08-21T05:25:51;5.13;;;3.13;;
8652;SDS011;4364;52.426;9.424;2022-08-21T05:28:18;5.83;;;3.10;;
8652;SDS011;4364;52.426;9.424;2022-08-21T05:30:45;6.77;;;3.43;;
8652;SDS011;4364;52.426;9.424;2022-08-21T05:33:12;6.77;;;2.97;;
8652;SDS011;4364;52.426;9.424;2022-08-21T05:35:39;5.53;;;3.10;;
8652;SDS011;4364;52.426;9.424;2022-08-21T05:38:06;5.00;;;3.23;;
8652;SDS011;4364;52.426;9.424;2022-08-21T05:40:43;5.00;;;3.30;;
8652;SDS011;4364;52.426;9.424;2022-08-21T05:43:10;6.63;;;3.10;;
8652;SDS011;4364;52.426;9.424;2022-08-21T05:45:36;6.00;;;3.40;;
8652;SDS011;4364;52.426;9.424;2022-08-21T05:48:17;5.50;;;2.70;;
8652;SDS011;4364;52.426;9.424;2022-08-21T05:50:46;7.83;;;3.20;;
8652;SDS011;4364;52.426;9.424;2022-08-21T05:53:15;8.07;;;3.67;;
8652;SDS011;4364;52.426;9.424;2022-08-21T05:55:45;4.53;;;3.03;;
8652;SDS011;4364;52.426;9.424;2022-08-21T05:58:13;8.30;;;3.47;;
8652;SDS011;4364;52.426;9.424;2022-08-21T06:00:43;5.37;;;2.83;;
8652;SDS011;4364;52.426;9.424;2022-08-21T06:03:11;6.57;;;3.60;;
8652;SDS011;4364;52.426;9.424;2022-08-21T06:05:43;6.60;;;3.37;;
8652;SDS011;4364;52.426;9.424;2022-08-21T06:08:09;5.37;;;3.27;;
8652;SDS011;4364;52.426;9.424;2022-08-21T06:10:37;5.63;;;4.13;;
8652;SDS011;4364;52.426;9.424;2022-08-21T06:13:04;7.07;;;3.60;;
8652;SDS011;4364;52.426;9.424;2022-08-21T06:15:31;6.10;;;3.60;;
8652;SDS011;4364;52.426;9.424;2022-08-21T06:17:58;5.80;;;3.90;;
8652;SDS011;4364;52.426;9.424;2022-08-21T06:20:25;5.70;;;3.43;;
8652;SDS011;4364;52.426;9.424;2022-08-21T06:22:52;5.87;;;3.73;;
8652;SDS011;4364;52.426;9.424;2022-08-21T06:25:18;10.33;;;4.80;;
8652;SDS011;4364;52.426;9.424;2022-08-21T06:27:45;7.73;;;4.60;;
8652;SDS011;4364;52.426;9.424;2022-08-21T06:30:13;10.10;;;5.23;;
8652;SDS011;4364;52.426;9.424;2022-08-21T06:32:44;10.00;;;4.73;;
8652;SDS011;4364;52.426;9.424;2022-08-21T06:35:10;12.63;;;5.60;;
8652;SDS011;4364;52.426;9.424;2022-08-21T06:37:37;9.90;;;4.87;;
8652;SDS011;4364;52.426;9.424;2022-08-21T06:40:04;9.70;;;5.40;;
8652;SDS011;4364;52.426;9.424;2022-08-21T06:42:38;11.13;;;5.40;;
8652;SDS011;4364;52.426;9.424;2022-08-21T06:45:08;12.37;;;6.50;;
8652;SDS011;4364;52.426;9.424;2022-08-21T06:47:35;8.63;;;5.53;;
8652;SDS011;4364;52.426;9.424;2022-08-21T06:50:03;9.27;;;5.73;;
8652;SDS011;4364;52.426;9.424;2022-08-21T06:52:31;9.80;;;5.37;;
8652;SDS011;4364;52.426;9.424;2022-08-21T06:54:57;11.90;;;5.93;;
8652;SDS011;4364;52.426;9.424;2022-08-21T06:57:25;9.93;;;5.87;;
8652;SDS011;4364;52.426;9.424;2022-08-21T06:59:52;7.60;;;4.97;;
8652;SDS011;4364;52.426;9.424;2022-08-21T07:02:18;10.77;;;5.53;;
8652;SDS011;4364;52.426;9.424;2022-08-21T07:04:45;8.27;;;5.03;;
8652;SDS011;4364;52.426;9.424;2022-08-21T07:07:11;10.23;;;4.83;;
8652;SDS011;4364;52.426;9.424;2022-08-21T07:09:38;8.33;;;4.47;;
8652;SDS011;4364;52.426;9.424;2022-08-21T07:12:05;7.23;;;4.23;;
8652;SDS011;4364;52.426;9.424;2022-08-21T07:14:32;6.83;;;4.10;;
8652;SDS011;4364;52.426;9.424;2022-08-21T07:16:59;8.13;;;4.10;;
8652;SDS011;4364;52.426;9.424;2022-08-21T07:19:25;9.43;;;3.73;;
8652;SDS011;4364;52.426;9.424;2022-08-21T07:21:53;9.50;;;4.27;;
8652;SDS011;4364;52.426;9.424;2022-08-21T07:24:26;9.37;;;3.97;;
8652;SDS011;4364;52.426;9.424;2022-08-21T07:26:53;7.57;;;3.50;;
8652;SDS011;4364;52.426;9.424;2022-08-21T07:29:22;9.17;;;3.90;;
8652;SDS011;4364;52.426;9.424;2022-08-21T07:31:48;7.90;;;4.13;;
8652;SDS011;4364;52.426;9.424;2022-08-21T07:34:18;5.90;;;3.50;;
8652;SDS011;4364;52.426;9.424;2022-08-21T07:36:45;10.10;;;3.47;;
8652;SDS011;4364;52.426;9.424;2022-08-21T07:39:15;8.27;;;3.77;;
8652;SDS011;4364;52.426;9.424;2022-08-21T07:41:42;5.13;;;2.70;;
8652;SDS011;4364;52.426;9.424;2022-08-21T07:44:08;7.33;;;3.10;;
8652;SDS011;4364;52.426;9.424;2022-08-21T07:46:37;6.10;;;3.00;;
8652;SDS011;4364;52.426;9.424;2022-08-21T07:49:04;6.43;;;2.93;;
8652;SDS011;4364;52.426;9.424;2022-08-21T07:51:31;5.77;;;2.60;;
8652;SDS011;4364;52.426;9.424;2022-08-21T07:54:03;6.60;;;2.67;;
8652;SDS011;4364;52.426;9.424;2022-08-21T07:56:30;5.57;;;2.77;;
8652;SDS011;4364;52.426;9.424;2022-08-21T07:58:58;8.10;;;3.30;;
8652;SDS011;4364;52.426;9.424;2022-08-21T08:01:32;6.57;;;2.93;;
8652;SDS011;4364;52.426;9.424;2022-08-21T08:03:59;6.97;;;2.80;;
8652;SDS011;4364;52.426;9.424;2022-08-21T08:06:26;8.87;;;2.70;;
8652;SDS011;4364;52.426;9.424;2022-08-21T08:08:53;6.37;;;2.50;;
8652;SDS011;4364;52.426;9.424;2022-08-21T08:11:20;5.23;;;2.43;;
8652;SDS011;4364;52.426;9.424;2022-08-21T08:13:47;7.33;;;3.27;;
8652;SDS011;4364;52.426;9.424;2022-08-21T08:16:17;5.57;;;2.60;;
8652;SDS011;4364;52.426;9.424;2022-08-21T08:18:44;9.43;;;2.77;;
8652;SDS011;4364;52.426;9.424;2022-08-21T08:21:11;7.13;;;2.90;;
8652;SDS011;4364;52.426;9.424;2022-08-21T08:23:38;6.37;;;2.50;;
8652;SDS011;4364;52.426;9.424;2022-08-21T08:26:05;8.10;;;2.97;;
8652;SDS011;4364;52.426;9.424;2022-08-21T08:28:32;7.13;;;2.70;;
8652;SDS011;4364;52.426;9.424;2022-08-21T08:30:59;7.97;;;3.20;;
8652;SDS011;4364;52.426;9.424;2022-08-21T08:33:27;6.57;;;3.17;;
8652;SDS011;4364;52.426;9.424;2022-08-21T08:35:55;10.90;;;3.20;;
8652;SDS011;4364;52.426;9.424;2022-08-21T08:38:23;6.43;;;2.97;;
8652;SDS011;4364;52.426;9.424;2022-08-21T08:43:39;10.63;;;3.10;;
8652;SDS011;4364;52.426;9.424;2022-08-21T08:46:12;8.00;;;3.17;;
8652;SDS011;4364;52.426;9.424;2022-08-21T08:48:50;7.87;;;2.67;;
8652;SDS011;4364;52.426;9.424;2022-08-21T08:51:23;8.47;;;3.03;;
8652;SDS011;4364;52.426;9.424;2022-08-21T08:53:55;6.40;;;2.60;;
8652;SDS011;4364;52.426;9.424;2022-08-21T08:56:33;5.73;;;2.60;;
8652;SDS011;4364;52.426;9.424;2022-08-21T08:59:08;9.00;;;2.90;;
8652;SDS011;4364;52.426;9.424;2022-08-21T09:01:42;7.23;;;2.90;;
8652;SDS011;4364;52.426;9.424;2022-08-21T09:04:09;5.97;;;2.70;;
8652;SDS011;4364;52.426;9.424;2022-08-21T09:06:44;7.17;;;2.63;;
8652;SDS011;4364;52.426;9.424;2022-08-21T09:18:11;7.73;;;2.93;;
8652;SDS011;4364;52.426;9.424;2022-08-21T09:23:49;9.07;;;2.90;;
8652;SDS011;4364;52.426;9.424;2022-08-21T09:26:23;9.27;;;2.70;;
8652;SDS011;4364;52.426;9.424;2022-08-21T09:28:56;6.60;;;2.33;;
8652;SDS011;4364;52.426;9.424;2022-08-21T09:31:29;6.10;;;2.70;;
8652;SDS011;4364;52.426;9.424;2022-08-21T09:34:01;6.70;;;3.00;;
8652;SDS011;4364;52.426;9.424;2022-08-21T09:36:41;6.97;;;2.67;;
8652;SDS011;4364;52.426;9.424;2022-08-21T09:39:10;6.47;;;3.17;;
8652;SDS011;4364;52.426;9.424;2022-08-21T09:41:39;7.27;;;2.77;;
8652;SDS011;4364;52.426;9.424;2022-08-21T09:44:06;5.53;;;2.80;;
8652;SDS011;4364;52.426;9.424;2022-08-21T09:46:34;7.23;;;2.60;;
8652;SDS011;4364;52.426;9.424;2022-08-21T09:49:03;8.23;;;2.53;;
8652;SDS011;4364;52.426;9.424;2022-08-21T09:51:38;4.87;;;2.40;;
8652;SDS011;4364;52.426;9.424;2022-08-21T09:54:18;5.97;;;2.30;;
8652;SDS011;4364;52.426;9.424;2022-08-21T09:56:57;6.30;;;2.50;;
8652;SDS011;4364;52.426;9.424;2022-08-21T10:02:50;6.77;;;2.83;;
8652;SDS011;4364;52.426;9.424;2022-08-21T10:05:22;10.43;;;2.73;;
8652;SDS011;4364;52.426;9.424;2022-08-21T10:07:52;8.30;;;2.80;;
8652;SDS011;4364;52.426;9.424;2022-08-21T10:34:55;5.20;;;2.43;;
8652;SDS011;4364;52.426;9.424;2022-08-21T10:48:51;5.93;;;2.47;;
8652;SDS011;4364;52.426;9.424;2022-08-21T10:56:48;7.80;;;2.67;;
8652;SDS011;4364;52.426;9.424;2022-08-21T10:59:34;6.43;;;2.70;;
8652;SDS011;4364;52.426;9.424;2022-08-21T11:04:41;7.30;;;2.50;;
8652;SDS011;4364;52.426;9.424;2022-08-21T11:07:43;5.43;;;2.38;;
8652;SDS011;4364;52.426;9.424;2022-08-21T11:10:17;7.07;;;2.85;;
8652;SDS011;4364;52.426;9.424;2022-08-21T11:12:55;6.88;;;2.67;;
8652;SDS011;4364;52.426;9.424;2022-08-21T11:15:37;7.55;;;2.40;;
8652;SDS011;4364;52.426;9.424;2022-08-21T11:29:39;9.90;;;2.50;;
8652;SDS011;4364;52.426;9.424;2022-08-21T11:32:13;5.53;;;2.33;;
8652;SDS011;4364;52.426;9.424;2022-08-21T11:43:12;5.53;;;2.45;;
8652;SDS011;4364;52.426;9.424;2022-08-21T11:46:11;7.57;;;2.67;;
8652;SDS011;4364;52.426;9.424;2022-08-21T11:48:51;4.00;;;2.22;;
8652;SDS011;4364;52.426;9.424;2022-08-21T11:57:05;4.97;;;2.25;;
8652;SDS011;4364;52.426;9.424;2022-08-21T11:59:57;4.93;;;2.40;;
8652;SDS011;4364;52.426;9.424;2022-08-21T12:02:38;5.65;;;2.38;;
8652;SDS011;4364;52.426;9.424;2022-08-21T12:05:11;3.22;;;2.03;;
8652;SDS011;4364;52.426;9.424;2022-08-21T12:07:59;6.03;;;2.13;;
8652;SDS011;4364;52.426;9.424;2022-08-21T12:10:59;4.93;;;2.58;;
8652;SDS011;4364;52.426;9.424;2022-08-21T12:13:30;4.50;;;2.10;;
8652;SDS011;4364;52.426;9.424;2022-08-21T12:16:07;2.72;;;1.98;;
8652;SDS011;4364;52.426;9.424;2022-08-21T12:18:35;6.15;;;2.40;;
8652;SDS011;4364;52.426;9.424;2022-08-21T12:21:20;4.28;;;2.08;;
8652;SDS011;4364;52.426;9.424;2022-08-21T12:26:48;3.65;;;2.20;;
8652;SDS011;4364;52.426;9.424;2022-08-21T12:29:21;5.03;;;2.50;;
8652;SDS011;4364;52.426;9.424;2022-08-21T12:34:37;3.47;;;2.10;;
8652;SDS011;4364;52.426;9.424;2022-08-21T12:37:13;4.88;;;2.10;;
8652;SDS011;4364;52.426;9.424;2022-08-21T12:39:47;4.13;;;2.22;;
8652;SDS011;4364;52.426;9.424;2022-08-21T12:42:24;3.42;;;2.10;;
8652;SDS011;4364;52.426;9.424;2022-08-21T12:45:06;3.90;;;2.15;;
8652;SDS011;4364;52.426;9.424;2022-08-21T12:50:35;4.55;;;2.60;;
8652;SDS011;4364;52.426;9.424;2022-08-21T12:53:04;6.18;;;2.40;;
8652;SDS011;4364;52.426;9.424;2022-08-21T12:55:46;5.03;;;2.00;;
8652;SDS011;4364;52.426;9.424;2022-08-21T12:58:19;5.10;;;2.53;;
8652;SDS011;4364;52.426;9.424;2022-08-21T13:00:49;5.53;;;2.50;;
8652;SDS011;4364;52.426;9.424;2022-08-21T13:03:18;4.35;;;2.30;;
8652;SDS011;4364;52.426;9.424;2022-08-21T13:05:45;4.60;;;2.40;;
8652;SDS011;4364;52.426;9.424;2022-08-21T13:08:12;4.30;;;2.38;;
8652;SDS011;4364;52.426;9.424;2022-08-21T13:10:40;3.90;;;2.03;;
8652;SDS011;4364;52.426;9.424;2022-08-21T13:13:13;4.53;;;2.30;;
8652;SDS011;4364;52.426;9.424;2022-08-21T13:15:57;7.38;;;2.25;;
8652;SDS011;4364;52.426;9.424;2022-08-21T13:18:27;6.15;;;2.92;;
8652;SDS011;4364;52.426;9.424;2022-08-21T13:21:05;4.82;;;2.15;;
8652;SDS011;4364;52.426;9.424;2022-08-21T13:23:37;3.75;;;2.58;;
8652;SDS011;4364;52.426;9.424;2022-08-21T13:26:14;5.30;;;2.83;;
8652;SDS011;4364;52.426;9.424;2022-08-21T13:28:44;5.30;;;2.63;;
8652;SDS011;4364;52.426;9.424;2022-08-21T13:31:16;5.10;;;2.60;;
8652;SDS011;4364;52.426;9.424;2022-08-21T13:33:48;5.75;;;2.80;;
8652;SDS011;4364;52.426;9.424;2022-08-21T13:36:17;4.88;;;2.47;;
8652;SDS011;4364;52.426;9.424;2022-08-21T13:38:51;4.47;;;2.45;;
8652;SDS011;4364;52.426;9.424;2022-08-21T13:41:31;4.03;;;2.45;;
8652;SDS011;4364;52.426;9.424;2022-08-21T13:44:06;4.03;;;2.25;;
8652;SDS011;4364;52.426;9.424;2022-08-21T13:46:46;5.50;;;2.30;;
8652;SDS011;4364;52.426;9.424;2022-08-21T13:49:16;4.88;;;2.53;;
8652;SDS011;4364;52.426;9.424;2022-08-21T13:51:44;6.72;;;2.58;;
8652;SDS011;4364;52.426;9.424;2022-08-21T13:54:18;5.25;;;2.40;;
8652;SDS011;4364;52.426;9.424;2022-08-21T13:56:49;5.03;;;2.67;;
8652;SDS011;4364;52.426;9.424;2022-08-21T13:59:32;5.20;;;2.95;;
8652;SDS011;4364;52.426;9.424;2022-08-21T14:02:10;5.47;;;3.00;;
8652;SDS011;4364;52.426;9.424;2022-08-21T14:04:54;5.70;;;3.00;;
8652;SDS011;4364;52.426;9.424;2022-08-21T14:07:31;5.70;;;2.95;;
8652;SDS011;4364;52.426;9.424;2022-08-21T14:10:03;6.85;;;2.97;;
8652;SDS011;4364;52.426;9.424;2022-08-21T14:12:42;6.72;;;2.92;;
8652;SDS011;4364;52.426;9.424;2022-08-21T14:15:20;8.10;;;3.38;;
8652;SDS011;4364;52.426;9.424;2022-08-21T14:17:51;4.72;;;3.17;;
8652;SDS011;4364;52.426;9.424;2022-08-21T14:20:28;4.28;;;2.80;;
8652;SDS011;4364;52.426;9.424;2022-08-21T14:22:58;5.85;;;2.83;;
8652;SDS011;4364;52.426;9.424;2022-08-21T14:30:53;4.90;;;3.08;;
8652;SDS011;4364;52.426;9.424;2022-08-21T14:33:31;6.78;;;2.90;;
8652;SDS011;4364;52.426;9.424;2022-08-21T14:35:58;4.55;;;2.92;;
8652;SDS011;4364;52.426;9.424;2022-08-21T14:38:34;4.18;;;2.80;;
8652;SDS011;4364;52.426;9.424;2022-08-21T14:41:36;4.70;;;2.95;;
8652;SDS011;4364;52.426;9.424;2022-08-21T14:43:55;5.50;;;3.25;;
8652;SDS011;4364;52.426;9.424;2022-08-21T14:46:36;6.40;;;3.15;;
8652;SDS011;4364;52.426;9.424;2022-08-21T14:49:22;6.10;;;2.97;;
8652;SDS011;4364;52.426;9.424;2022-08-21T14:51:50;5.15;;;3.08;;
8652;SDS011;4364;52.426;9.424;2022-08-21T14:54:26;6.30;;;3.10;;
8652;SDS011;4364;52.426;9.424;2022-08-21T14:57:00;5.00;;;3.40;;
8652;SDS011;4364;52.426;9.424;2022-08-21T14:59:36;5.07;;;3.10;;
8652;SDS011;4364;52.426;9.424;2022-08-21T15:02:03;6.32;;;3.10;;
8652;SDS011;4364;52.426;9.424;2022-08-21T15:04:31;5.55;;;2.90;;
8652;SDS011;4364;52.426;9.424;2022-08-21T15:06:59;6.05;;;2.90;;
8652;SDS011;4364;52.426;9.424;2022-08-21T15:09:27;6.75;;;3.22;;
8652;SDS011;4364;52.426;9.424;2022-08-21T15:11:55;5.43;;;2.97;;
8652;SDS011;4364;52.426;9.424;2022-08-21T15:14:24;4.07;;;3.25;;
8652;SDS011;4364;52.426;9.424;2022-08-21T15:16:53;6.90;;;3.20;;
8652;SDS011;4364;52.426;9.424;2022-08-21T15:19:19;4.97;;;3.30;;
8652;SDS011;4364;52.426;9.424;2022-08-21T15:21:46;6.55;;;2.97;;
8652;SDS011;4364;52.426;9.424;2022-08-21T15:24:13;5.65;;;3.17;;
8652;SDS011;4364;52.426;9.424;2022-08-21T15:26:40;4.32;;;3.20;;
8652;SDS011;4364;52.426;9.424;2022-08-21T15:29:07;8.57;;;3.45;;
8652;SDS011;4364;52.426;9.424;2022-08-21T15:31:35;5.65;;;3.25;;
8652;SDS011;4364;52.426;9.424;2022-08-21T15:34:02;6.75;;;3.20;;
8652;SDS011;4364;52.426;9.424;2022-08-21T15:36:32;5.18;;;3.03;;
8652;SDS011;4364;52.426;9.424;2022-08-21T15:38:59;7.05;;;3.15;;
8652;SDS011;4364;52.426;9.424;2022-08-21T15:41:27;6.07;;;3.15;;
8652;SDS011;4364;52.426;9.424;2022-08-21T15:43:55;5.18;;;3.30;;
8652;SDS011;4364;52.426;9.424;2022-08-21T15:46:22;6.55;;;3.45;;
8652;SDS011;4364;52.426;9.424;2022-08-21T15:48:49;6.18;;;3.35;;
8652;SDS011;4364;52.426;9.424;2022-08-21T15:51:16;5.50;;;3.22;;
8652;SDS011;4364;52.426;9.424;2022-08-21T15:53:43;4.32;;;3.35;;
8652;SDS011;4364;52.426;9.424;2022-08-21T15:56:21;5.63;;;3.42;;
8652;SDS011;4364;52.426;9.424;2022-08-21T15:59:02;7.45;;;3.10;;
8652;SDS011;4364;52.426;9.424;2022-08-21T16:01:33;9.38;;;3.22;;
8652;SDS011;4364;52.426;9.424;2022-08-21T16:04:11;5.70;;;3.42;;
8652;SDS011;4364;52.426;9.424;2022-08-21T16:06:44;6.03;;;3.20;;
8652;SDS011;4364;52.426;9.424;2022-08-21T16:09:25;5.97;;;3.55;;
8652;SDS011;4364;52.426;9.424;2022-08-21T16:11:58;4.85;;;2.97;;
8652;SDS011;4364;52.426;9.424;2022-08-21T16:14:26;6.20;;;3.50;;
8652;SDS011;4364;52.426;9.424;2022-08-21T16:16:56;6.93;;;3.25;;
8652;SDS011;4364;52.426;9.424;2022-08-21T16:19:22;4.97;;;3.67;;
8652;SDS011;4364;52.426;9.424;2022-08-21T16:21:50;5.03;;;3.40;;
8652;SDS011;4364;52.426;9.424;2022-08-21T16:24:17;6.35;;;3.90;;
8652;SDS011;4364;52.426;9.424;2022-08-21T16:26:43;6.38;;;3.70;;
8652;SDS011;4364;52.426;9.424;2022-08-21T16:29:10;5.43;;;3.53;;
8652;SDS011;4364;52.426;9.424;2022-08-21T16:31:37;5.68;;;3.50;;
8652;SDS011;4364;52.426;9.424;2022-08-21T16:34:03;4.88;;;3.50;;
8652;SDS011;4364;52.426;9.424;2022-08-21T16:36:30;4.50;;;3.78;;
8652;SDS011;4364;52.426;9.424;2022-08-21T16:38:57;5.72;;;3.83;;
8652;SDS011;4364;52.426;9.424;2022-08-21T16:41:26;4.78;;;3.58;;
8652;SDS011;4364;52.426;9.424;2022-08-21T16:43:56;5.88;;;3.88;;
8652;SDS011;4364;52.426;9.424;2022-08-21T16:46:31;7.28;;;3.50;;
8652;SDS011;4364;52.426;9.424;2022-08-21T16:48:59;5.43;;;3.67;;
8652;SDS011;4364;52.426;9.424;2022-08-21T16:51:28;5.72;;;3.92;;
8652;SDS011;4364;52.426;9.424;2022-08-21T16:53:57;7.70;;;3.40;;
8652;SDS011;4364;52.426;9.424;2022-08-21T16:56:24;6.75;;;4.18;;
8652;SDS011;4364;52.426;9.424;2022-08-21T16:58:52;5.00;;;3.53;;
8652;SDS011;4364;52.426;9.424;2022-08-21T17:01:21;4.55;;;3.45;;
8652;SDS011;4364;52.426;9.424;2022-08-21T17:03:52;4.50;;;3.28;;
8652;SDS011;4364;52.426;9.424;2022-08-21T17:06:21;6.15;;;3.63;;
8652;SDS011;4364;52.426;9.424;2022-08-21T17:08:54;4.75;;;3.65;;
8652;SDS011;4364;52.426;9.424;2022-08-21T17:11:41;5.90;;;3.70;;
8652;SDS011;4364;52.426;9.424;2022-08-21T17:14:11;5.70;;;3.70;;
8652;SDS011;4364;52.426;9.424;2022-08-21T17:16:43;5.50;;;3.70;;
8652;SDS011;4364;52.426;9.424;2022-08-21T17:19:11;5.32;;;3.22;;
8652;SDS011;4364;52.426;9.424;2022-08-21T17:21:39;4.68;;;3.53;;
8652;SDS011;4364;52.426;9.424;2022-08-21T17:24:05;5.85;;;3.70;;